createdAt,value
2023-09-23T00:01:05.627Z,3.90
2023-09-23T00:03:35.034Z,3.67
2023-09-23T00:06:05.251Z,3.38
2023-09-23T00:08:33.330Z,3.33
2023-09-23T00:11:01.358Z,2.92
2023-09-23T00:13:29.547Z,3.13
2023-09-23T00:15:57.878Z,3.28
2023-09-23T00:18:25.855Z,2.88
2023-09-23T00:20:53.725Z,2.65
2023-09-23T00:23:22.975Z,4.45
2023-09-23T00:25:51.156Z,3.53
2023-09-23T00:28:21.690Z,3.72
2023-09-23T00:30:49.720Z,3.17
2023-09-23T00:33:19.003Z,4.35
2023-09-23T00:35:48.628Z,3.63
2023-09-23T00:38:19.096Z,2.30
2023-09-23T00:40:48.677Z,3.33
2023-09-23T00:43:19.291Z,4.32
2023-09-23T00:45:49.110Z,2.65
2023-09-23T00:48:19.285Z,3.17
2023-09-23T00:50:47.697Z,2.72
2023-09-23T00:53:15.825Z,3.10
2023-09-23T00:55:53.012Z,3.28
2023-09-23T00:58:22.714Z,2.88
2023-09-23T01:00:52.851Z,3.22
2023-09-23T01:03:21.028Z,1.98
2023-09-23T01:05:49.699Z,1.77
2023-09-23T01:08:20.959Z,2.13
2023-09-23T01:10:49.499Z,2.80
2023-09-23T01:13:20.696Z,1.90
2023-09-23T01:15:50.381Z,1.55
2023-09-23T01:18:18.984Z,1.80
2023-09-23T01:20:49.877Z,1.45
2023-09-23T01:23:19.507Z,1.38
2023-09-23T01:25:47.506Z,1.40
2023-09-23T01:28:15.546Z,1.95
2023-09-23T01:30:45.268Z,1.40
2023-09-23T01:33:14.957Z,1.20
2023-09-23T01:35:43.367Z,1.38
2023-09-23T01:38:12.579Z,1.40
2023-09-23T01:40:42.657Z,0.90
2023-09-23T01:43:11.962Z,0.95
2023-09-23T01:45:41.261Z,1.05
2023-09-23T01:48:09.979Z,0.70
2023-09-23T01:50:37.973Z,0.73
2023-09-23T01:53:06.163Z,0.60
2023-09-23T01:55:34.215Z,0.70
2023-09-23T01:58:04.646Z,0.88
2023-09-23T02:00:33.240Z,0.80
2023-09-23T02:03:01.354Z,0.80
2023-09-23T02:05:29.558Z,0.90
2023-09-23T02:07:57.830Z,0.82
2023-09-23T02:10:27.690Z,0.90
2023-09-23T02:12:56.511Z,0.80
2023-09-23T02:15:25.798Z,1.02
2023-09-23T02:17:54.408Z,0.82
2023-09-23T02:20:23.321Z,1.02
2023-09-23T02:22:51.892Z,0.85
2023-09-23T02:25:19.873Z,1.00
2023-09-23T02:27:48.094Z,1.13
2023-09-23T02:30:16.172Z,1.30
2023-09-23T02:32:45.711Z,1.02
2023-09-23T02:35:14.847Z,1.05
2023-09-23T02:37:42.964Z,1.10
2023-09-23T02:40:13.223Z,1.75
2023-09-23T02:42:42.087Z,1.20
2023-09-23T02:45:11.747Z,1.15
2023-09-23T02:47:39.834Z,1.27
2023-09-23T02:50:11.023Z,1.15
2023-09-23T02:52:40.257Z,1.95
2023-09-23T02:55:12.217Z,1.52
2023-09-23T02:57:40.421Z,2.42
2023-09-23T03:00:17.747Z,1.75
2023-09-23T03:02:47.437Z,2.00
2023-09-23T03:05:18.330Z,3.38
2023-09-23T03:07:49.434Z,1.63
2023-09-23T03:10:20.633Z,1.20
2023-09-23T03:13:02.767Z,1.95
2023-09-23T03:15:35.408Z,2.58
2023-09-23T03:18:04.254Z,2.45
2023-09-23T03:20:35.640Z,3.63
2023-09-23T03:23:04.589Z,3.35
2023-09-23T03:25:32.571Z,4.95
2023-09-23T03:28:00.479Z,3.78
2023-09-23T03:30:28.628Z,3.47
2023-09-23T03:32:57.820Z,2.53
2023-09-23T03:35:26.189Z,3.42
2023-09-23T03:37:55.773Z,5.22
2023-09-23T03:40:26.258Z,6.00
2023-09-23T03:42:54.172Z,6.55
2023-09-23T03:45:22.324Z,5.32
2023-09-23T03:47:51.013Z,4.47
2023-09-23T03:50:19.214Z,7.63
2023-09-23T03:52:48.603Z,4.55
2023-09-23T03:55:19.292Z,7.03
2023-09-23T03:57:47.714Z,3.63
2023-09-23T04:00:17.574Z,3.63
2023-09-23T04:02:48.680Z,7.45
2023-09-23T04:05:16.899Z,6.30
2023-09-23T04:07:51.136Z,3.35
2023-09-23T04:10:20.866Z,4.22
2023-09-23T04:12:48.834Z,6.72
2023-09-23T04:15:16.784Z,7.75
2023-09-23T04:17:44.724Z,4.63
2023-09-23T04:20:15.838Z,6.78
2023-09-23T04:22:44.129Z,3.00
2023-09-23T04:25:15.029Z,6.35
2023-09-23T04:27:44.357Z,4.93
2023-09-23T04:30:12.901Z,4.75
2023-09-23T04:32:41.630Z,4.57
2023-09-23T04:35:09.984Z,4.80
2023-09-23T04:37:38.536Z,5.70
2023-09-23T04:40:09.861Z,5.80
2023-09-23T04:42:37.767Z,5.78
2023-09-23T04:45:07.709Z,4.85
2023-09-23T04:47:36.245Z,7.05
2023-09-23T04:50:06.176Z,4.22
2023-09-23T04:52:34.222Z,6.25
2023-09-23T04:55:02.168Z,5.53
2023-09-23T04:57:30.301Z,6.07
2023-09-23T04:59:58.972Z,7.32
2023-09-23T05:02:28.595Z,4.63
2023-09-23T05:04:56.665Z,4.30
2023-09-23T05:07:26.139Z,6.72
2023-09-23T05:09:56.781Z,4.35
2023-09-23T05:12:25.228Z,5.60
2023-09-23T05:14:54.462Z,4.80
2023-09-23T05:17:27.548Z,3.97
2023-09-23T05:19:57.019Z,4.63
2023-09-23T05:22:24.969Z,5.00
2023-09-23T05:25:03.973Z,4.55
2023-09-23T05:27:33.239Z,4.40
2023-09-23T05:30:01.175Z,4.47
2023-09-23T05:32:29.199Z,6.35
2023-09-23T05:35:01.330Z,4.43
2023-09-23T05:37:29.284Z,4.30
2023-09-23T05:39:58.531Z,4.57
2023-09-23T05:42:27.558Z,3.92
2023-09-23T05:44:56.523Z,3.88
2023-09-23T05:47:24.583Z,5.22
2023-09-23T05:49:52.820Z,4.07
2023-09-23T05:52:22.117Z,3.95
2023-09-23T05:54:51.135Z,5.47
2023-09-23T05:57:19.035Z,3.75
2023-09-23T05:59:46.939Z,4.60
2023-09-23T06:02:14.961Z,5.32
2023-09-23T06:04:42.961Z,3.60
2023-09-23T06:07:10.981Z,4.50
2023-09-23T06:09:40.423Z,5.85
2023-09-23T06:12:09.011Z,4.63
2023-09-23T06:14:36.887Z,6.60
2023-09-23T06:17:04.964Z,4.65
2023-09-23T06:19:34.547Z,4.57
2023-09-23T06:22:02.620Z,4.10
2023-09-23T06:24:30.628Z,3.88
2023-09-23T06:26:59.974Z,3.10
2023-09-23T06:29:28.298Z,3.85
2023-09-23T06:31:56.564Z,4.53
2023-09-23T06:34:24.768Z,4.00
2023-09-23T06:36:52.827Z,5.43
2023-09-23T06:39:24.920Z,5.10
2023-09-23T06:41:52.826Z,3.42
2023-09-23T06:44:22.184Z,4.38
2023-09-23T06:46:51.231Z,3.85
2023-09-23T06:49:19.277Z,4.30
2023-09-23T06:51:47.350Z,3.03
2023-09-23T06:54:15.324Z,3.25
2023-09-23T06:56:43.204Z,4.18
2023-09-23T06:59:11.157Z,4.20
2023-09-23T07:01:40.452Z,3.70
2023-09-23T07:04:10.050Z,4.95
2023-09-23T07:06:38.667Z,3.80
2023-09-23T07:09:06.826Z,3.85
2023-09-23T07:11:34.820Z,3.92
2023-09-23T07:14:07.050Z,4.57
2023-09-23T07:16:35.653Z,4.22
2023-09-23T07:19:04.984Z,4.55
2023-09-23T07:21:32.957Z,5.68
2023-09-23T07:24:00.954Z,4.57
2023-09-23T07:26:29.001Z,5.72
2023-09-23T07:28:57.902Z,5.90
2023-09-23T07:31:25.957Z,4.75
2023-09-23T07:33:54.007Z,5.80
2023-09-23T07:36:23.331Z,5.38
2023-09-23T07:38:51.264Z,4.93
2023-09-23T07:41:19.329Z,3.65
2023-09-23T07:43:49.508Z,4.30
2023-09-23T07:46:17.598Z,4.43
2023-09-23T07:48:45.623Z,4.65
2023-09-23T07:51:14.378Z,2.97
2023-09-23T07:53:43.761Z,3.05
2023-09-23T07:56:11.832Z,3.92
2023-09-23T07:58:39.876Z,2.97
2023-09-23T08:01:07.828Z,3.88
2023-09-23T08:03:35.800Z,4.95
2023-09-23T08:06:03.893Z,3.95
2023-09-23T08:08:31.826Z,2.70
2023-09-23T08:11:01.135Z,3.55
2023-09-23T08:13:29.056Z,2.78
2023-09-23T08:15:58.927Z,3.17
2023-09-23T08:18:26.971Z,3.40
2023-09-23T08:20:57.372Z,4.40
2023-09-23T08:23:25.429Z,4.05
2023-09-23T08:25:53.502Z,3.47
2023-09-23T08:28:22.822Z,2.55
2023-09-23T08:30:51.365Z,3.28
2023-09-23T08:33:19.450Z,4.15
2023-09-23T08:35:48.625Z,5.13
2023-09-23T08:38:16.783Z,3.20
2023-09-23T08:40:45.064Z,4.63
2023-09-23T08:43:13.070Z,3.58
2023-09-23T08:45:45.573Z,4.45
2023-09-23T08:48:14.168Z,3.58
2023-09-23T08:50:43.540Z,4.20
2023-09-23T08:53:12.279Z,3.83
2023-09-23T08:55:40.712Z,3.70
2023-09-23T08:58:08.689Z,2.70
2023-09-23T09:00:36.738Z,2.70
2023-09-23T09:03:06.227Z,2.75
2023-09-23T09:05:41.333Z,3.53
2023-09-23T09:08:09.523Z,3.85
2023-09-23T09:10:37.525Z,3.10
2023-09-23T09:13:06.832Z,3.20
2023-09-23T09:15:36.390Z,3.20
2023-09-23T09:18:06.275Z,2.47
2023-09-23T09:20:34.706Z,3.17
2023-09-23T09:23:03.012Z,2.90
2023-09-23T09:25:32.526Z,2.97
2023-09-23T09:28:00.785Z,3.95
2023-09-23T09:30:28.699Z,2.67
2023-09-23T09:32:58.236Z,3.55
2023-09-23T09:35:27.667Z,3.60
2023-09-23T09:38:07.424Z,2.22
2023-09-23T09:40:43.338Z,2.42
2023-09-23T09:43:11.282Z,2.88
2023-09-23T09:45:41.803Z,2.70
2023-09-23T09:48:09.901Z,2.17
2023-09-23T09:50:39.749Z,2.15
2023-09-23T09:53:07.875Z,2.00
2023-09-23T09:55:35.958Z,2.70
2023-09-23T09:58:04.144Z,1.85
2023-09-23T10:00:41.848Z,2.63
2023-09-23T10:03:12.571Z,2.42
2023-09-23T10:05:47.636Z,2.40
2023-09-23T10:08:17.205Z,2.50
2023-09-23T10:10:48.332Z,2.30
2023-09-23T10:13:16.607Z,2.63
2023-09-23T10:15:44.585Z,2.10
2023-09-23T10:18:13.000Z,2.30
2023-09-23T10:20:41.609Z,1.77
2023-09-23T10:23:11.796Z,1.98
2023-09-23T10:25:40.445Z,2.13
2023-09-23T10:28:08.428Z,1.48
2023-09-23T10:30:36.695Z,1.63
2023-09-23T10:33:06.026Z,2.22
2023-09-23T10:35:36.536Z,2.05
2023-09-23T10:38:07.588Z,1.85
2023-09-23T10:40:36.946Z,2.22
2023-09-23T10:43:09.221Z,1.52
2023-09-23T10:45:37.123Z,2.17
2023-09-23T10:48:06.416Z,1.60
2023-09-23T10:50:34.420Z,1.58
2023-09-23T10:53:02.593Z,2.40
2023-09-23T10:55:30.728Z,1.70
2023-09-23T10:58:00.114Z,2.05
2023-09-23T11:00:29.292Z,1.70
2023-09-23T11:02:57.336Z,2.10
2023-09-23T11:05:25.526Z,1.73
2023-09-23T11:07:55.417Z,2.08
2023-09-23T11:10:23.935Z,1.73
2023-09-23T11:12:51.910Z,1.30
2023-09-23T11:15:22.323Z,2.25
2023-09-23T11:17:50.421Z,3.08
2023-09-23T11:20:18.454Z,2.70
2023-09-23T11:22:46.334Z,2.25
2023-09-23T11:25:14.969Z,2.58
2023-09-23T11:27:44.544Z,2.92
2023-09-23T11:30:12.896Z,1.88
2023-09-23T11:32:42.888Z,2.80
2023-09-23T11:35:11.001Z,2.00
2023-09-23T11:37:38.930Z,2.30
2023-09-23T11:40:09.619Z,2.58
2023-09-23T11:42:37.645Z,2.35
2023-09-23T11:45:05.884Z,2.72
2023-09-23T11:47:33.912Z,2.00
2023-09-23T11:50:04.650Z,2.88
2023-09-23T11:52:32.903Z,1.77
2023-09-23T11:55:00.860Z,2.30
2023-09-23T11:57:28.814Z,2.70
2023-09-23T11:59:56.879Z,2.85
2023-09-23T12:02:24.965Z,2.90
2023-09-23T12:04:53.217Z,2.75
2023-09-23T12:07:22.976Z,1.45
2023-09-23T12:09:50.926Z,2.28
2023-09-23T12:12:19.962Z,2.53
2023-09-23T12:14:49.704Z,3.00
2023-09-23T12:17:17.613Z,3.20
2023-09-23T12:19:45.938Z,3.20
2023-09-23T12:22:17.035Z,3.42
2023-09-23T12:24:46.432Z,3.17
2023-09-23T12:27:14.356Z,2.67
2023-09-23T12:29:42.241Z,3.00
2023-09-23T12:32:11.767Z,2.50
2023-09-23T12:34:39.790Z,2.55
2023-09-23T12:37:07.769Z,2.67
2023-09-23T12:39:35.661Z,2.67
2023-09-23T12:42:05.039Z,2.80
2023-09-23T12:44:32.949Z,2.80
2023-09-23T12:47:00.939Z,2.53
2023-09-23T12:49:29.206Z,2.63
2023-09-23T12:51:57.151Z,3.20
2023-09-23T12:54:25.108Z,3.05
2023-09-23T12:56:53.073Z,2.60
2023-09-23T12:59:23.001Z,2.70
2023-09-23T13:01:50.943Z,3.65
2023-09-23T13:04:19.246Z,3.10
2023-09-23T13:06:48.403Z,3.00
2023-09-23T13:09:17.117Z,3.20
2023-09-23T13:11:45.256Z,2.88
2023-09-23T13:14:13.225Z,3.35
2023-09-23T13:16:44.628Z,2.42
2023-09-23T13:19:14.873Z,2.40
2023-09-23T13:21:42.895Z,3.00
2023-09-23T13:24:10.814Z,2.25
2023-09-23T13:26:38.837Z,2.20
2023-09-23T13:29:07.039Z,3.17
2023-09-23T13:31:35.023Z,2.90
2023-09-23T13:34:06.665Z,3.05
2023-09-23T13:36:35.125Z,2.05
2023-09-23T13:39:03.248Z,2.95
2023-09-23T13:41:32.068Z,2.13
2023-09-23T13:44:00.139Z,1.95
2023-09-23T13:46:28.462Z,2.28
2023-09-23T13:48:56.503Z,2.00
2023-09-23T13:51:25.847Z,1.90
2023-09-23T13:53:53.772Z,2.33
2023-09-23T13:56:21.753Z,1.63
2023-09-23T13:58:52.610Z,1.80
2023-09-23T14:01:21.089Z,1.80
2023-09-23T14:03:49.394Z,1.75
2023-09-23T14:06:17.742Z,1.80
2023-09-23T14:08:47.263Z,2.08
2023-09-23T14:11:15.469Z,1.63
2023-09-23T14:13:45.422Z,1.50
2023-09-23T14:16:13.716Z,1.50
2023-09-23T14:18:41.684Z,2.08
2023-09-23T14:21:09.670Z,2.08
2023-09-23T14:23:37.600Z,1.73
2023-09-23T14:26:07.705Z,1.70
2023-09-23T14:28:35.668Z,1.50
2023-09-23T14:31:03.957Z,2.00
2023-09-23T14:33:32.125Z,1.42
2023-09-23T14:36:01.316Z,1.92
2023-09-23T14:38:29.733Z,1.73
2023-09-23T14:40:57.946Z,1.40
2023-09-23T14:43:27.261Z,2.03
2023-09-23T14:45:56.068Z,1.23
2023-09-23T14:48:24.109Z,1.20
2023-09-23T14:50:52.108Z,1.02
2023-09-23T14:53:20.491Z,1.30
2023-09-23T14:55:48.409Z,1.40
2023-09-23T14:58:16.352Z,1.40
2023-09-23T15:00:46.196Z,1.15
2023-09-23T15:03:14.465Z,1.38
2023-09-23T15:05:43.790Z,1.00
2023-09-23T15:08:12.905Z,1.33
2023-09-23T15:10:40.885Z,1.25
2023-09-23T15:13:08.836Z,1.35
2023-09-23T15:15:36.822Z,1.30
2023-09-23T15:18:06.740Z,1.35
2023-09-23T15:20:37.228Z,1.13
2023-09-23T15:23:06.769Z,1.30
2023-09-23T15:25:35.422Z,0.95
2023-09-23T15:28:05.067Z,1.33
2023-09-23T15:30:33.051Z,1.15
2023-09-23T15:33:01.962Z,1.30
2023-09-23T15:35:31.536Z,1.30
2023-09-23T15:38:00.303Z,1.10
2023-09-23T15:40:28.314Z,1.38
2023-09-23T15:42:56.269Z,1.40
2023-09-23T15:45:24.333Z,1.33
2023-09-23T15:47:52.525Z,1.02
2023-09-23T15:50:20.560Z,1.15
2023-09-23T15:52:49.937Z,1.20
2023-09-23T15:55:19.260Z,1.05
2023-09-23T15:57:47.187Z,1.25
2023-09-23T16:00:15.662Z,1.20
2023-09-23T16:02:43.762Z,1.20
2023-09-23T16:05:12.330Z,1.25
2023-09-23T16:07:40.296Z,1.45
2023-09-23T16:10:11.247Z,0.93
2023-09-23T16:12:39.228Z,1.30
2023-09-23T16:15:07.518Z,0.98
2023-09-23T16:17:35.621Z,1.20
2023-09-23T16:20:05.959Z,1.00
2023-09-23T16:22:33.955Z,1.00
2023-09-23T16:25:01.916Z,1.10
2023-09-23T16:27:31.254Z,1.13
2023-09-23T16:29:59.130Z,1.50
2023-09-23T16:32:27.473Z,0.90
2023-09-23T16:34:55.404Z,0.77
2023-09-23T16:37:23.439Z,1.15
2023-09-23T16:39:51.376Z,1.10
2023-09-23T16:42:21.369Z,1.48
2023-09-23T16:44:51.023Z,1.23
2023-09-23T16:47:19.051Z,2.70
2023-09-23T16:49:47.047Z,4.90
2023-09-23T16:52:15.985Z,13.63
2023-09-23T16:54:45.004Z,24.65
2023-09-23T16:57:13.295Z,13.27
2023-09-23T16:59:41.295Z,10.40
2023-09-23T17:02:10.824Z,9.13
2023-09-23T17:04:38.996Z,12.90
2023-09-23T17:07:06.996Z,16.50
2023-09-23T17:09:34.918Z,11.52
2023-09-23T17:12:02.819Z,9.75
2023-09-23T17:14:30.881Z,9.77
2023-09-23T17:16:58.861Z,12.93
2023-09-23T17:19:28.521Z,7.10
2023-09-23T17:21:57.127Z,7.63
2023-09-23T17:24:25.051Z,6.97
2023-09-23T17:26:53.334Z,7.57
2023-09-23T17:29:22.065Z,8.25
2023-09-23T17:31:50.579Z,7.47
2023-09-23T17:34:18.840Z,5.82
2023-09-23T17:36:48.333Z,5.43
2023-09-23T17:39:16.378Z,6.28
2023-09-23T17:41:44.470Z,3.58
2023-09-23T17:44:12.504Z,5.72
2023-09-23T17:46:40.711Z,6.03
2023-09-23T17:49:10.129Z,5.30
2023-09-23T17:51:38.103Z,5.03
2023-09-23T17:54:07.697Z,5.93
2023-09-23T17:56:35.646Z,4.75
2023-09-23T17:59:04.805Z,4.60
2023-09-23T18:01:32.983Z,5.30
2023-09-23T18:04:01.091Z,4.35
2023-09-23T18:06:30.005Z,4.68
2023-09-23T18:08:57.957Z,4.28
2023-09-23T18:11:27.238Z,4.82
2023-09-23T18:13:55.742Z,3.53
2023-09-23T18:16:23.727Z,3.80
2023-09-23T18:18:51.727Z,3.88
2023-09-23T18:21:20.212Z,2.92
2023-09-23T18:23:48.475Z,3.22
2023-09-23T18:26:17.320Z,2.92
2023-09-23T18:28:47.181Z,3.47
2023-09-23T18:31:15.125Z,3.00
2023-09-23T18:33:43.179Z,3.80
2023-09-23T18:36:11.891Z,3.50
2023-09-23T18:38:38.965Z,3.88
2023-09-23T18:41:07.122Z,3.50
2023-09-23T18:43:35.259Z,3.20
2023-09-23T18:46:04.577Z,2.53
2023-09-23T18:48:33.449Z,2.97
2023-09-23T18:51:01.686Z,2.20
2023-09-23T18:53:29.842Z,2.78
2023-09-23T18:56:00.572Z,1.88
2023-09-23T18:58:28.967Z,2.17
2023-09-23T19:00:56.970Z,2.50
2023-09-23T19:03:26.491Z,2.28
2023-09-23T19:05:54.880Z,2.00
2023-09-23T19:08:22.917Z,1.70
2023-09-23T19:10:50.944Z,2.05
2023-09-23T19:13:18.972Z,1.95
2023-09-23T19:15:48.102Z,1.90
2023-09-23T19:18:16.815Z,1.83
2023-09-23T19:20:46.250Z,1.92
2023-09-23T19:23:15.567Z,2.08
2023-09-23T19:25:43.608Z,1.70
2023-09-23T19:28:11.614Z,2.33
2023-09-23T19:30:40.062Z,1.80
2023-09-23T19:33:08.198Z,1.63
2023-09-23T19:35:37.505Z,1.40
2023-09-23T19:38:08.043Z,2.20
2023-09-23T19:40:38.721Z,1.90
2023-09-23T19:43:06.792Z,1.90
2023-09-23T19:45:34.799Z,2.33
2023-09-23T19:48:02.868Z,2.50
2023-09-23T19:50:31.406Z,2.60
2023-09-23T19:53:00.708Z,2.90
2023-09-23T19:55:30.010Z,2.97
2023-09-23T19:57:57.923Z,2.25
2023-09-23T20:00:29.169Z,2.60
2023-09-23T20:02:57.515Z,2.20
2023-09-23T20:05:25.660Z,2.35
2023-09-23T20:07:53.675Z,1.70
2023-09-23T20:10:21.769Z,2.78
2023-09-23T20:12:51.600Z,2.00
2023-09-23T20:15:19.545Z,2.17
2023-09-23T20:17:47.799Z,2.08
2023-09-23T20:20:16.091Z,2.00
2023-09-23T20:22:44.155Z,2.03
2023-09-23T20:25:13.154Z,1.70
2023-09-23T20:27:41.140Z,1.80
2023-09-23T20:30:10.899Z,1.67
2023-09-23T20:32:39.710Z,2.00
2023-09-23T20:35:08.445Z,1.90
2023-09-23T20:37:36.537Z,1.75
2023-09-23T20:40:07.588Z,1.85
2023-09-23T20:42:35.778Z,1.60
2023-09-23T20:45:04.566Z,1.50
2023-09-23T20:47:34.119Z,1.80
2023-09-23T20:50:05.411Z,1.42
2023-09-23T20:52:33.805Z,1.50
2023-09-23T20:55:01.800Z,1.95
2023-09-23T20:57:31.707Z,1.60
2023-09-23T20:59:59.648Z,1.30
2023-09-23T21:02:27.792Z,1.65
2023-09-23T21:04:59.281Z,1.67
2023-09-23T21:07:27.660Z,1.70
2023-09-23T21:09:55.698Z,1.50
2023-09-23T21:12:23.706Z,1.70
2023-09-23T21:14:51.779Z,1.60
2023-09-23T21:17:19.866Z,1.70
2023-09-23T21:19:47.849Z,2.05
2023-09-23T21:22:17.131Z,1.85
2023-09-23T21:24:45.175Z,1.75
2023-09-23T21:27:13.811Z,1.92
2023-09-23T21:29:42.916Z,1.85
2023-09-23T21:32:11.093Z,2.40
2023-09-23T21:34:39.013Z,2.00
2023-09-23T21:37:06.958Z,2.50
2023-09-23T21:39:36.237Z,2.05
2023-09-23T21:42:04.208Z,1.70
2023-09-23T21:44:32.245Z,2.08
2023-09-23T21:47:00.219Z,2.00
2023-09-23T21:49:28.141Z,2.70
2023-09-23T21:51:56.060Z,3.58
2023-09-23T21:54:23.980Z,2.92
2023-09-23T21:56:53.334Z,3.42
2023-09-23T21:59:21.446Z,2.50
2023-09-23T22:01:50.566Z,2.05
2023-09-23T22:04:18.642Z,2.28
2023-09-23T22:06:47.034Z,1.90
2023-09-23T22:09:15.905Z,1.90
2023-09-23T22:11:44.006Z,2.30
2023-09-23T22:14:13.604Z,1.50
2023-09-23T22:16:41.861Z,2.13
2023-09-23T22:19:10.677Z,1.58
2023-09-23T22:21:41.293Z,1.75
2023-09-23T22:24:09.953Z,1.70
2023-09-23T22:26:38.575Z,1.83
2023-09-23T22:29:10.077Z,2.03
2023-09-23T22:31:40.265Z,1.80
2023-09-23T22:34:08.581Z,1.50
2023-09-23T22:36:36.488Z,1.90
2023-09-23T22:39:05.292Z,1.60
2023-09-23T22:41:33.274Z,1.98
2023-09-23T22:44:01.643Z,1.88
2023-09-23T22:46:29.542Z,1.92
2023-09-23T22:49:00.081Z,1.75
2023-09-23T22:51:29.047Z,1.77
2023-09-23T22:53:57.286Z,1.90
2023-09-23T22:56:26.070Z,1.77
2023-09-23T22:58:54.215Z,1.73
2023-09-23T23:01:22.199Z,1.77
2023-09-23T23:03:51.562Z,1.80
2023-09-23T23:06:21.236Z,1.50
2023-09-23T23:08:52.363Z,1.63
2023-09-23T23:11:21.756Z,1.80
2023-09-23T23:13:50.217Z,1.63
2023-09-23T23:16:19.719Z,1.50
2023-09-23T23:18:48.384Z,1.20
2023-09-23T23:21:16.361Z,1.60
2023-09-23T23:23:45.826Z,1.52
2023-09-23T23:26:13.955Z,1.80
2023-09-23T23:28:41.951Z,2.45
2023-09-23T23:31:10.617Z,2.10
2023-09-23T23:33:38.655Z,1.77
2023-09-23T23:36:07.549Z,1.80
2023-09-23T23:38:35.578Z,1.98
2023-09-23T23:41:04.855Z,1.70
2023-09-23T23:43:33.057Z,1.58
2023-09-23T23:46:01.087Z,1.48
2023-09-23T23:48:29.979Z,1.58
2023-09-23T23:51:05.658Z,1.67
2023-09-23T23:53:33.875Z,1.85
2023-09-23T23:56:02.026Z,1.67
2023-09-23T23:58:31.289Z,1.25
